PWSweather.com
Personal Weather Stations
Station Observations
DW6359
Southwest Cambria, Cambria, WI 53923

Southwest CambriaCambria, WI 53923

Lat: 43.541194, Lon: -89.11275

Elevation: 945

Station Type: Davis Vantage Pro2

http://home.centurytel.net/weathercambria/wxcambria.html

High Low Average
Temperature 49.4°F9.7°C 30.4°F-0.9°C 37.1°F2.8°C
Dew Point 46.0°F7.8°C 26.4°F-3.1°C 33.9°F1.1°C
Winds 15.0 mph 24.1 kmh Calm Calm 5.0 mph S8.0 kmh S
Wind Gusts 16.0 mph25.7 kmh -- 2.0 mph3.2 kmh
Humidity 89% 85% 88%
Pressure 30.11 in1019.6 mb 29.70 in1005.8 mb -
Precipitation 0.02 in0.5 mm - -
Hour Temp Dew Point Humidity Winds Wind Gusts Pressure Precip Precip Rate Daily Precip Total
12:00 AM 32.0°F0.0°C 27.7°F-2.4°C 84% 4.0 mph SE6.4 kmh SE -- 30.14 in1020.7 mb 0.00 in0.0 mm 0.00 in0.0 mm 0.00 in0.0 mm
12:05 AM 31.9°F-0.1°C 27.6°F-2.4°C 84% 3.0 mph SE4.8 kmh SE -- 30.13 in1020.3 mb 0.00 in0.0 mm 0.00 in0.0 mm 0.00 in0.0 mm
12:10 AM 31.9°F-0.1°C 27.6°F-2.4°C 84% 3.0 mph SE4.8 kmh SE -- 30.13 in1020.3 mb 0.00 in0.0 mm 0.00 in0.0 mm 0.00 in0.0 mm
12:15 AM 31.8°F-0.1°C 27.5°F-2.5°C 84% 3.0 mph ESE4.8 kmh ESE -- 30.13 in1020.3 mb 0.00 in0.0 mm 0.00 in0.0 mm 0.00 in0.0 mm
12:20 AM 31.7°F-0.2°C 27.4°F-2.6°C 84% 6.0 mph SE9.7 kmh SE 8.0 mph12.9 kmh 30.13 in1020.3 mb 0.00 in0.0 mm 0.00 in0.0 mm 0.00 in0.0 mm
12:25 AM 31.5°F-0.3°C 27.2°F-2.7°C 84% 4.0 mph ESE6.4 kmh ESE 8.0 mph12.9 kmh 30.13 in1020.3 mb 0.00 in0.0 mm 0.00 in0.0 mm 0.00 in0.0 mm
12:30 AM 31.4°F-0.3°C 27.1°F-2.7°C 84% 3.0 mph ESE4.8 kmh ESE -- 30.13 in1020.3 mb 0.00 in0.0 mm 0.00 in0.0 mm 0.00 in0.0 mm
12:35 AM 31.2°F-0.4°C 26.9°F-2.8°C 84% 5.0 mph SE8.0 kmh SE -- 30.13 in1020.3 mb 0.00 in0.0 mm 0.00 in0.0 mm 0.00 in0.0 mm
12:40 AM 31.1°F-0.5°C 26.8°F-2.9°C 84% 5.0 mph ESE8.0 kmh ESE -- 30.12 in1020.0 mb 0.00 in0.0 mm 0.00 in0.0 mm 0.00 in0.0 mm
12:45 AM 30.9°F-0.6°C 26.9°F-2.8°C 85% 4.0 mph SE6.4 kmh SE -- 30.12 in1020.0 mb 0.00 in0.0 mm 0.00 in0.0 mm 0.00 in0.0 mm
12:50 AM 30.8°F-0.7°C 26.8°F-2.9°C 85% 5.0 mph ESE8.0 kmh ESE -- 30.12 in1020.0 mb 0.00 in0.0 mm 0.00 in0.0 mm 0.00 in0.0 mm
12:55 AM 30.7°F-0.7°C 26.7°F-2.9°C 85% 3.0 mph SE4.8 kmh SE -- 30.11 in1019.6 mb 0.00 in0.0 mm 0.00 in0.0 mm 0.00 in0.0 mm
01:00 AM 30.6°F-0.8°C 26.6°F-3.0°C 85% 5.0 mph SE8.0 kmh SE -- 30.11 in1019.6 mb 0.00 in0.0 mm 0.00 in0.0 mm 0.00 in0.0 mm
01:05 AM 30.5°F-0.8°C 26.5°F-3.1°C 85% 3.0 mph SE4.8 kmh SE -- 30.10 in1019.3 mb 0.00 in0.0 mm 0.00 in0.0 mm 0.00 in0.0 mm
01:10 AM 30.4°F-0.9°C 26.4°F-3.1°C 85% 4.0 mph ESE6.4 kmh ESE 7.0 mph11.3 kmh 30.10 in1019.3 mb 0.00 in0.0 mm 0.00 in0.0 mm 0.00 in0.0 mm
01:15 AM 30.5°F-0.8°C 26.5°F-3.1°C 85% 4.0 mph SE6.4 kmh SE 7.0 mph11.3 kmh 30.10 in1019.3 mb 0.00 in0.0 mm 0.00 in0.0 mm 0.00 in0.0 mm
01:20 AM 30.4°F-0.9°C 26.4°F-3.1°C 85% 4.0 mph SE6.4 kmh SE -- 30.10 in1019.3 mb 0.00 in0.0 mm 0.00 in0.0 mm 0.00 in0.0 mm
01:25 AM 30.4°F-0.9°C 26.7°F-2.9°C 86% 6.0 mph SSE9.7 kmh SSE -- 30.10 in1019.3 mb 0.00 in0.0 mm 0.00 in0.0 mm 0.00 in0.0 mm
01:30 AM 30.5°F-0.8°C 26.5°F-3.1°C 85% 4.0 mph SE6.4 kmh SE -- 30.10 in1019.3 mb 0.00 in0.0 mm 0.00 in0.0 mm 0.00 in0.0 mm
01:35 AM 30.6°F-0.8°C 26.6°F-3.0°C 85% 8.0 mph SE12.9 kmh SE -- 30.09 in1019.0 mb 0.00 in0.0 mm 0.00 in0.0 mm 0.00 in0.0 mm
01:40 AM 30.8°F-0.7°C 26.8°F-2.9°C 85% 6.0 mph SSE9.7 kmh SSE -- 30.09 in1019.0 mb 0.00 in0.0 mm 0.00 in0.0 mm 0.00 in0.0 mm
01:45 AM 30.8°F-0.7°C 26.8°F-2.9°C 85% 9.0 mph SE14.5 kmh SE -- 30.08 in1018.6 mb 0.00 in0.0 mm 0.00 in0.0 mm 0.00 in0.0 mm
01:50 AM 30.8°F-0.7°C 26.8°F-2.9°C 85% 4.0 mph SE6.4 kmh SE -- 30.08 in1018.6 mb 0.00 in0.0 mm 0.00 in0.0 mm 0.00 in0.0 mm
01:55 AM 30.9°F-0.6°C 26.9°F-2.8°C 85% 8.0 mph SSE12.9 kmh SSE -- 30.08 in1018.6 mb 0.00 in0.0 mm 0.00 in0.0 mm 0.00 in0.0 mm
02:00 AM 30.9°F-0.6°C 26.9°F-2.8°C 85% 7.0 mph SE11.3 kmh SE 14.0 mph22.5 kmh 30.07 in1018.3 mb 0.00 in0.0 mm 0.00 in0.0 mm 0.00 in0.0 mm
02:05 AM 30.9°F-0.6°C 26.9°F-2.8°C 85% 8.0 mph SE12.9 kmh SE 14.0 mph22.5 kmh 30.06 in1017.9 mb 0.00 in0.0 mm 0.00 in0.0 mm 0.00 in0.0 mm
02:10 AM 30.9°F-0.6°C 26.9°F-2.8°C 85% 9.0 mph ESE14.5 kmh ESE -- 30.05 in1017.6 mb 0.00 in0.0 mm 0.00 in0.0 mm 0.00 in0.0 mm
02:15 AM 30.9°F-0.6°C 26.9°F-2.8°C 85% 9.0 mph SSE14.5 kmh SSE -- 30.05 in1017.6 mb 0.00 in0.0 mm 0.00 in0.0 mm 0.00 in0.0 mm
02:20 AM 30.8°F-0.7°C 26.8°F-2.9°C 85% 4.0 mph SE6.4 kmh SE -- 30.05 in1017.6 mb 0.00 in0.0 mm 0.00 in0.0 mm 0.00 in0.0 mm
02:25 AM 30.8°F-0.7°C 26.8°F-2.9°C 85% 9.0 mph SE14.5 kmh SE -- 30.05 in1017.6 mb 0.00 in0.0 mm 0.00 in0.0 mm 0.00 in0.0 mm
02:30 AM 30.8°F-0.7°C 26.8°F-2.9°C 85% 7.0 mph SE11.3 kmh SE -- 30.05 in1017.6 mb 0.00 in0.0 mm 0.00 in0.0 mm 0.00 in0.0 mm
02:35 AM 30.7°F-0.7°C 27.0°F-2.8°C 86% 7.0 mph SE11.3 kmh SE -- 30.06 in1017.9 mb 0.00 in0.0 mm 0.00 in0.0 mm 0.00 in0.0 mm
02:40 AM 30.7°F-0.7°C 27.0°F-2.8°C 86% 4.0 mph SE6.4 kmh SE -- 30.05 in1017.6 mb 0.00 in0.0 mm 0.00 in0.0 mm 0.00 in0.0 mm
02:45 AM 30.6°F-0.8°C 26.9°F-2.8°C 86% 6.0 mph SE9.7 kmh SE -- 30.05 in1017.6 mb 0.00 in0.0 mm 0.00 in0.0 mm 0.00 in0.0 mm
02:50 AM 30.6°F-0.8°C 26.9°F-2.8°C 86% 14.0 mph SSE22.5 kmh SSE 14.0 mph22.5 kmh 30.04 in1017.3 mb 0.00 in0.0 mm 0.00 in0.0 mm 0.00 in0.0 mm
02:55 AM 30.5°F-0.8°C 27.1°F-2.7°C 87% 5.0 mph SE8.0 kmh SE 14.0 mph22.5 kmh 30.04 in1017.3 mb 0.00 in0.0 mm 0.00 in0.0 mm 0.00 in0.0 mm
03:00 AM 30.5°F-0.8°C 27.1°F-2.7°C 87% 5.0 mph SE8.0 kmh SE -- 30.04 in1017.3 mb 0.00 in0.0 mm 0.00 in0.0 mm 0.00 in0.0 mm
03:05 AM 30.5°F-0.8°C 27.1°F-2.7°C 87% 6.0 mph SE9.7 kmh SE -- 30.04 in1017.3 mb 0.00 in0.0 mm 0.00 in0.0 mm 0.00 in0.0 mm
03:10 AM 30.5°F-0.8°C 27.1°F-2.7°C 87% 6.0 mph SE9.7 kmh SE -- 30.04 in1017.3 mb 0.00 in0.0 mm 0.00 in0.0 mm 0.00 in0.0 mm
03:15 AM 30.5°F-0.8°C 27.1°F-2.7°C 87% 9.0 mph SSE14.5 kmh SSE -- 30.04 in1017.3 mb 0.00 in0.0 mm 0.00 in0.0 mm 0.00 in0.0 mm
03:20 AM 30.6°F-0.8°C 27.5°F-2.5°C 88% 15.0 mph SE24.1 kmh SE -- 30.04 in1017.3 mb 0.00 in0.0 mm 0.00 in0.0 mm 0.00 in0.0 mm
03:25 AM 30.6°F-0.8°C 27.5°F-2.5°C 88% 6.0 mph SE9.7 kmh SE -- 30.04 in1017.3 mb 0.00 in0.0 mm 0.00 in0.0 mm 0.00 in0.0 mm
03:30 AM 30.6°F-0.8°C 27.5°F-2.5°C 88% 6.0 mph SE9.7 kmh SE -- 30.04 in1017.3 mb 0.00 in0.0 mm 0.00 in0.0 mm 0.00 in0.0 mm
03:35 AM 30.6°F-0.8°C 27.5°F-2.5°C 88% 7.0 mph SSE11.3 kmh SSE -- 30.03 in1016.9 mb 0.00 in0.0 mm 0.00 in0.0 mm 0.00 in0.0 mm
03:40 AM 30.6°F-0.8°C 27.5°F-2.5°C 88% 6.0 mph SSE9.7 kmh SSE 16.0 mph25.7 kmh 30.04 in1017.3 mb 0.00 in0.0 mm 0.00 in0.0 mm 0.00 in0.0 mm
03:45 AM 30.6°F-0.8°C 27.5°F-2.5°C 88% 8.0 mph SE12.9 kmh SE 16.0 mph25.7 kmh 30.03 in1016.9 mb 0.00 in0.0 mm 0.00 in0.0 mm 0.00 in0.0 mm
03:50 AM 30.6°F-0.8°C 27.5°F-2.5°C 88% 7.0 mph SSW11.3 kmh SSW -- 30.04 in1017.3 mb 0.00 in0.0 mm 0.00 in0.0 mm 0.00 in0.0 mm
03:55 AM 30.6°F-0.8°C 27.5°F-2.5°C 88% 9.0 mph S14.5 kmh S -- 30.03 in1016.9 mb 0.00 in0.0 mm 0.00 in0.0 mm 0.00 in0.0 mm
04:00 AM 30.5°F-0.8°C 27.4°F-2.6°C 88% 5.0 mph S8.0 kmh S -- 30.02 in1016.6 mb 0.00 in0.0 mm 0.00 in0.0 mm 0.00 in0.0 mm
04:05 AM 30.5°F-0.8°C 27.4°F-2.6°C 88% 6.0 mph S9.7 kmh S -- 30.03 in1016.9 mb 0.00 in0.0 mm 0.00 in0.0 mm 0.00 in0.0 mm
04:10 AM 30.5°F-0.8°C 27.4°F-2.6°C 88% 5.0 mph SSE8.0 kmh SSE -- 30.02 in1016.6 mb 0.00 in0.0 mm 0.00 in0.0 mm 0.00 in0.0 mm
04:15 AM 30.5°F-0.8°C 27.4°F-2.6°C 88% 6.0 mph SSE9.7 kmh SSE -- 30.02 in1016.6 mb 0.00 in0.0 mm 0.00 in0.0 mm 0.00 in0.0 mm
04:20 AM 30.5°F-0.8°C 27.4°F-2.6°C 88% 6.0 mph SSE9.7 kmh SSE -- 30.02 in1016.6 mb 0.00 in0.0 mm 0.00 in0.0 mm 0.00 in0.0 mm
04:25 AM 30.5°F-0.8°C 27.4°F-2.6°C 88% 9.0 mph SE14.5 kmh SE -- 30.02 in1016.6 mb 0.00 in0.0 mm 0.00 in0.0 mm 0.00 in0.0 mm
04:30 AM 30.5°F-0.8°C 27.4°F-2.6°C 88% 7.0 mph SSE11.3 kmh SSE 13.0 mph20.9 kmh 30.01 in1016.3 mb 0.00 in0.0 mm 0.00 in0.0 mm 0.00 in0.0 mm
04:35 AM 30.5°F-0.8°C 27.4°F-2.6°C 88% 6.0 mph SSE9.7 kmh SSE 13.0 mph20.9 kmh 30.00 in1015.9 mb 0.00 in0.0 mm 0.00 in0.0 mm 0.00 in0.0 mm
04:40 AM 30.5°F-0.8°C 27.4°F-2.6°C 88% 7.0 mph SSE11.3 kmh SSE -- 30.00 in1015.9 mb 0.00 in0.0 mm 0.00 in0.0 mm 0.00 in0.0 mm
04:45 AM 30.6°F-0.8°C 27.5°F-2.5°C 88% 10.0 mph SSE16.1 kmh SSE -- 30.00 in1015.9 mb 0.00 in0.0 mm 0.00 in0.0 mm 0.00 in0.0 mm
04:50 AM 30.6°F-0.8°C 27.5°F-2.5°C 88% 8.0 mph SSE12.9 kmh SSE -- 30.00 in1015.9 mb 0.00 in0.0 mm 0.00 in0.0 mm 0.00 in0.0 mm
04:55 AM 30.6°F-0.8°C 27.5°F-2.5°C 88% 5.0 mph SE8.0 kmh SE -- 29.99 in1015.6 mb 0.00 in0.0 mm 0.00 in0.0 mm 0.00 in0.0 mm
05:00 AM 30.6°F-0.8°C 27.5°F-2.5°C 88% 4.0 mph SSE6.4 kmh SSE -- 29.99 in1015.6 mb 0.00 in0.0 mm 0.00 in0.0 mm 0.00 in0.0 mm
05:05 AM 30.7°F-0.7°C 27.6°F-2.4°C 88% 10.0 mph SE16.1 kmh SE -- 29.98 in1015.2 mb 0.00 in0.0 mm 0.00 in0.0 mm 0.00 in0.0 mm
05:10 AM 30.8°F-0.7°C 27.7°F-2.4°C 88% 7.0 mph SSE11.3 kmh SSE -- 29.98 in1015.2 mb 0.00 in0.0 mm 0.00 in0.0 mm 0.00 in0.0 mm
05:15 AM 30.9°F-0.6°C 27.8°F-2.3°C 88% 4.0 mph S6.4 kmh S -- 29.98 in1015.2 mb 0.00 in0.0 mm 0.00 in0.0 mm 0.00 in0.0 mm
05:20 AM 31.0°F-0.6°C 27.9°F-2.3°C 88% 7.0 mph SSE11.3 kmh SSE 12.0 mph19.3 kmh 29.96 in1014.6 mb 0.00 in0.0 mm 0.00 in0.0 mm 0.00 in0.0 mm
05:25 AM 31.1°F-0.5°C 28.0°F-2.2°C 88% 5.0 mph S8.0 kmh S 12.0 mph19.3 kmh 29.96 in1014.6 mb 0.00 in0.0 mm 0.00 in0.0 mm 0.00 in0.0 mm
05:30 AM 31.2°F-0.4°C 28.1°F-2.2°C 88% 6.0 mph SSE9.7 kmh SSE -- 29.96 in1014.6 mb 0.00 in0.0 mm 0.00 in0.0 mm 0.00 in0.0 mm
05:35 AM 31.4°F-0.3°C 28.3°F-2.1°C 88% 7.0 mph SSE11.3 kmh SSE -- 29.96 in1014.6 mb 0.00 in0.0 mm 0.00 in0.0 mm 0.00 in0.0 mm
05:40 AM 31.5°F-0.3°C 28.4°F-2.0°C 88% 10.0 mph S16.1 kmh S -- 29.96 in1014.6 mb 0.00 in0.0 mm 0.00 in0.0 mm 0.00 in0.0 mm
05:45 AM 31.7°F-0.2°C 28.6°F-1.9°C 88% 7.0 mph SE11.3 kmh SE -- 29.95 in1014.2 mb 0.00 in0.0 mm 0.00 in0.0 mm 0.00 in0.0 mm
05:50 AM 31.8°F-0.1°C 28.7°F-1.8°C 88% 11.0 mph SSE17.7 kmh SSE -- 29.95 in1014.2 mb 0.00 in0.0 mm 0.00 in0.0 mm 0.00 in0.0 mm
05:55 AM 31.9°F-0.1°C 28.8°F-1.8°C 88% 6.0 mph SE9.7 kmh SE -- 29.95 in1014.2 mb 0.00 in0.0 mm 0.00 in0.0 mm 0.00 in0.0 mm
06:00 AM 32.0°F0.0°C 28.9°F-1.7°C 88% 9.0 mph SE14.5 kmh SE -- 29.95 in1014.2 mb 0.00 in0.0 mm 0.00 in0.0 mm 0.00 in0.0 mm
06:05 AM 32.1°F0.1°C 29.0°F-1.7°C 88% 7.0 mph SE11.3 kmh SE -- 29.95 in1014.2 mb 0.00 in0.0 mm 0.00 in0.0 mm 0.00 in0.0 mm
06:10 AM 32.2°F0.1°C 29.1°F-1.6°C 88% 10.0 mph SE16.1 kmh SE 12.0 mph19.3 kmh 29.96 in1014.6 mb 0.00 in0.0 mm 0.00 in0.0 mm 0.00 in0.0 mm
06:15 AM 32.3°F0.2°C 29.2°F-1.6°C 88% 9.0 mph S14.5 kmh S 12.0 mph19.3 kmh 29.95 in1014.2 mb 0.00 in0.0 mm 0.00 in0.0 mm 0.00 in0.0 mm
06:20 AM 32.4°F0.2°C 29.3°F-1.5°C 88% 8.0 mph S12.9 kmh S -- 29.95 in1014.2 mb 0.00 in0.0 mm 0.00 in0.0 mm 0.00 in0.0 mm
06:25 AM 32.5°F0.3°C 29.6°F-1.3°C 89% 9.0 mph S14.5 kmh S -- 29.95 in1014.2 mb 0.00 in0.0 mm 0.00 in0.0 mm 0.00 in0.0 mm
06:30 AM 32.6°F0.3°C 29.7°F-1.3°C 89% 9.0 mph SE14.5 kmh SE -- 29.95 in1014.2 mb 0.00 in0.0 mm 0.00 in0.0 mm 0.00 in0.0 mm
06:35 AM 32.6°F0.3°C 29.7°F-1.3°C 89% 6.0 mph SSE9.7 kmh SSE -- 29.95 in1014.2 mb 0.00 in0.0 mm 0.00 in0.0 mm 0.00 in0.0 mm
06:40 AM 32.7°F0.4°C 29.8°F-1.2°C 89% 5.0 mph SSE8.0 kmh SSE -- 29.95 in1014.2 mb 0.00 in0.0 mm 0.00 in0.0 mm 0.00 in0.0 mm
06:45 AM 32.8°F0.4°C 29.9°F-1.2°C 89% 4.0 mph S6.4 kmh S -- 29.95 in1014.2 mb 0.00 in0.0 mm 0.00 in0.0 mm 0.00 in0.0 mm
06:50 AM 32.8°F0.4°C 29.6°F-1.3°C 88% 3.0 mph SSE4.8 kmh SSE -- 29.95 in1014.2 mb 0.00 in0.0 mm 0.00 in0.0 mm 0.00 in0.0 mm
06:55 AM 32.9°F0.5°C 29.7°F-1.3°C 88% 3.0 mph S4.8 kmh S -- 29.95 in1014.2 mb 0.00 in0.0 mm 0.00 in0.0 mm 0.00 in0.0 mm
07:00 AM 33.0°F0.6°C 29.8°F-1.2°C 88% 6.0 mph SE9.7 kmh SE 8.0 mph12.9 kmh 29.94 in1013.9 mb 0.00 in0.0 mm 0.00 in0.0 mm 0.00 in0.0 mm
07:05 AM 33.0°F0.6°C 29.8°F-1.2°C 88% 8.0 mph S12.9 kmh S 8.0 mph12.9 kmh 29.94 in1013.9 mb 0.00 in0.0 mm 0.00 in0.0 mm 0.00 in0.0 mm
07:10 AM 33.1°F0.6°C 29.9°F-1.2°C 88% 3.0 mph SE4.8 kmh SE -- 29.95 in1014.2 mb 0.00 in0.0 mm 0.00 in0.0 mm 0.00 in0.0 mm
07:15 AM 33.2°F0.7°C 30.3°F-0.9°C 89% 4.0 mph S6.4 kmh S -- 29.94 in1013.9 mb 0.00 in0.0 mm 0.00 in0.0 mm 0.00 in0.0 mm
07:20 AM 33.2°F0.7°C 30.3°F-0.9°C 89% 2.0 mph S3.2 kmh S -- 29.94 in1013.9 mb 0.00 in0.0 mm 0.00 in0.0 mm 0.00 in0.0 mm
07:25 AM 33.3°F0.7°C 30.4°F-0.9°C 89% 7.0 mph SE11.3 kmh SE -- 29.93 in1013.5 mb 0.00 in0.0 mm 0.00 in0.0 mm 0.00 in0.0 mm
07:30 AM 33.4°F0.8°C 30.5°F-0.8°C 89% 6.0 mph S9.7 kmh S -- 29.93 in1013.5 mb 0.00 in0.0 mm 0.00 in0.0 mm 0.00 in0.0 mm
07:35 AM 33.5°F0.8°C 30.6°F-0.8°C 89% 4.0 mph SSE6.4 kmh SSE -- 29.93 in1013.5 mb 0.00 in0.0 mm 0.00 in0.0 mm 0.00 in0.0 mm
07:40 AM 33.6°F0.9°C 30.7°F-0.7°C 89% 8.0 mph SSE12.9 kmh SSE -- 29.93 in1013.5 mb 0.00 in0.0 mm 0.00 in0.0 mm 0.00 in0.0 mm
07:45 AM 33.7°F0.9°C 30.8°F-0.7°C 89% 8.0 mph SSE12.9 kmh SSE -- 29.92 in1013.2 mb 0.00 in0.0 mm 0.00 in0.0 mm 0.00 in0.0 mm
07:50 AM 33.7°F0.9°C 30.8°F-0.7°C 89% 9.0 mph SE14.5 kmh SE 14.0 mph22.5 kmh 29.91 in1012.9 mb 0.00 in0.0 mm 0.00 in0.0 mm 0.00 in0.0 mm
07:55 AM 33.7°F0.9°C 30.8°F-0.7°C 89% 5.0 mph S8.0 kmh S 14.0 mph22.5 kmh 29.91 in1012.9 mb 0.00 in0.0 mm 0.00 in0.0 mm 0.00 in0.0 mm
08:00 AM 33.7°F0.9°C 30.8°F-0.7°C 89% 7.0 mph S11.3 kmh S -- 29.92 in1013.2 mb 0.00 in0.0 mm 0.00 in0.0 mm 0.00 in0.0 mm
08:05 AM 33.7°F0.9°C 30.8°F-0.7°C 89% 6.0 mph SE9.7 kmh SE -- 29.91 in1012.9 mb 0.00 in0.0 mm 0.00 in0.0 mm 0.00 in0.0 mm
08:10 AM 33.8°F1.0°C 30.9°F-0.6°C 89% 15.0 mph S24.1 kmh S -- 29.91 in1012.9 mb 0.00 in0.0 mm 0.00 in0.0 mm 0.00 in0.0 mm
08:15 AM 33.9°F1.1°C 31.0°F-0.6°C 89% 5.0 mph SSE8.0 kmh SSE -- 29.90 in1012.5 mb 0.00 in0.0 mm 0.00 in0.0 mm 0.00 in0.0 mm
08:20 AM 34.0°F1.1°C 31.1°F-0.5°C 89% 7.0 mph S11.3 kmh S -- 29.90 in1012.5 mb 0.00 in0.0 mm 0.00 in0.0 mm 0.00 in0.0 mm
08:25 AM 34.1°F1.2°C 31.2°F-0.4°C 89% 9.0 mph S14.5 kmh S -- 29.90 in1012.5 mb 0.00 in0.0 mm 0.00 in0.0 mm 0.00 in0.0 mm
08:30 AM 34.1°F1.2°C 31.2°F-0.4°C 89% 3.0 mph SSW4.8 kmh SSW -- 29.90 in1012.5 mb 0.00 in0.0 mm 0.00 in0.0 mm 0.00 in0.0 mm
08:35 AM 34.2°F1.2°C 31.3°F-0.4°C 89% 5.0 mph S8.0 kmh S -- 29.91 in1012.9 mb 0.00 in0.0 mm 0.00 in0.0 mm 0.00 in0.0 mm
08:40 AM 34.3°F1.3°C 31.4°F-0.3°C 89% 9.0 mph S14.5 kmh S 11.0 mph17.7 kmh 29.91 in1012.9 mb 0.00 in0.0 mm 0.00 in0.0 mm 0.00 in0.0 mm
08:45 AM 34.6°F1.4°C 31.7°F-0.2°C 89% 9.0 mph S14.5 kmh S 11.0 mph17.7 kmh 29.89 in1012.2 mb 0.00 in0.0 mm 0.00 in0.0 mm 0.00 in0.0 mm
08:50 AM 34.9°F1.6°C 32.0°F0.0°C 89% 5.0 mph S8.0 kmh S -- 29.90 in1012.5 mb 0.00 in0.0 mm 0.00 in0.0 mm 0.00 in0.0 mm
08:55 AM 35.0°F1.7°C 32.1°F0.1°C 89% 6.0 mph SSW9.7 kmh SSW -- 29.90 in1012.5 mb 0.00 in0.0 mm 0.00 in0.0 mm 0.00 in0.0 mm
09:00 AM 35.1°F1.7°C 32.2°F0.1°C 89% 5.0 mph S8.0 kmh S -- 29.90 in1012.5 mb 0.00 in0.0 mm 0.00 in0.0 mm 0.00 in0.0 mm
09:05 AM 35.2°F1.8°C 32.3°F0.2°C 89% 4.0 mph S6.4 kmh S -- 29.90 in1012.5 mb 0.00 in0.0 mm 0.00 in0.0 mm 0.00 in0.0 mm
09:10 AM 35.2°F1.8°C 32.3°F0.2°C 89% 5.0 mph S8.0 kmh S -- 29.90 in1012.5 mb 0.00 in0.0 mm 0.00 in0.0 mm 0.00 in0.0 mm
09:15 AM 35.2°F1.8°C 32.3°F0.2°C 89% 3.0 mph S4.8 kmh S -- 29.89 in1012.2 mb 0.00 in0.0 mm 0.00 in0.0 mm 0.00 in0.0 mm
09:20 AM 35.2°F1.8°C 32.3°F0.2°C 89% 3.0 mph S4.8 kmh S -- 29.89 in1012.2 mb 0.00 in0.0 mm 0.00 in0.0 mm 0.00 in0.0 mm
09:25 AM 35.2°F1.8°C 32.3°F0.2°C 89% 6.0 mph SSW9.7 kmh SSW -- 29.89 in1012.2 mb 0.00 in0.0 mm 0.00 in0.0 mm 0.00 in0.0 mm
09:30 AM 35.2°F1.8°C 32.3°F0.2°C 89% 8.0 mph S12.9 kmh S 10.0 mph16.1 kmh 29.89 in1012.2 mb 0.00 in0.0 mm 0.00 in0.0 mm 0.00 in0.0 mm
09:35 AM 35.2°F1.8°C 32.3°F0.2°C 89% 5.0 mph S8.0 kmh S 10.0 mph16.1 kmh 29.89 in1012.2 mb 0.00 in0.0 mm 0.00 in0.0 mm 0.00 in0.0 mm
09:40 AM 35.3°F1.8°C 32.4°F0.2°C 89% 9.0 mph S14.5 kmh S -- 29.89 in1012.2 mb 0.00 in0.0 mm 0.00 in0.0 mm 0.00 in0.0 mm
09:45 AM 35.3°F1.8°C 32.4°F0.2°C 89% 4.0 mph S6.4 kmh S -- 29.89 in1012.2 mb 0.00 in0.0 mm 0.00 in0.0 mm 0.00 in0.0 mm
09:50 AM 35.3°F1.8°C 32.4°F0.2°C 89% 5.0 mph S8.0 kmh S -- 29.88 in1011.9 mb 0.00 in0.0 mm 0.00 in0.0 mm 0.00 in0.0 mm
09:55 AM 35.3°F1.8°C 32.4°F0.2°C 89% 5.0 mph S8.0 kmh S -- 29.88 in1011.9 mb 0.00 in0.0 mm 0.00 in0.0 mm 0.00 in0.0 mm
10:00 AM 35.3°F1.8°C 32.4°F0.2°C 89% 6.0 mph S9.7 kmh S -- 29.88 in1011.9 mb 0.00 in0.0 mm 0.00 in0.0 mm 0.00 in0.0 mm
10:05 AM 35.3°F1.8°C 32.4°F0.2°C 89% 6.0 mph SSW9.7 kmh SSW -- 29.87 in1011.5 mb 0.00 in0.0 mm 0.00 in0.0 mm 0.00 in0.0 mm
10:10 AM 35.3°F1.8°C 32.4°F0.2°C 89% 6.0 mph S9.7 kmh S -- 29.87 in1011.5 mb 0.00 in0.0 mm 0.00 in0.0 mm 0.00 in0.0 mm
10:15 AM 35.3°F1.8°C 32.4°F0.2°C 89% 10.0 mph S16.1 kmh S -- 29.87 in1011.5 mb 0.00 in0.0 mm 0.00 in0.0 mm 0.00 in0.0 mm
10:20 AM 35.4°F1.9°C 32.5°F0.3°C 89% 3.0 mph S4.8 kmh S 13.0 mph20.9 kmh 29.87 in1011.5 mb 0.00 in0.0 mm 0.00 in0.0 mm 0.00 in0.0 mm
10:25 AM 35.4°F1.9°C 32.5°F0.3°C 89% 5.0 mph SSW8.0 kmh SSW 13.0 mph20.9 kmh 29.87 in1011.5 mb 0.00 in0.0 mm 0.00 in0.0 mm 0.00 in0.0 mm
10:30 AM 35.4°F1.9°C 32.5°F0.3°C 89% 4.0 mph S6.4 kmh S -- 29.87 in1011.5 mb 0.00 in0.0 mm 0.00 in0.0 mm 0.00 in0.0 mm
10:35 AM 35.4°F1.9°C 32.5°F0.3°C 89% 4.0 mph SW6.4 kmh SW -- 29.87 in1011.5 mb 0.00 in0.0 mm 0.00 in0.0 mm 0.00 in0.0 mm
10:40 AM 35.4°F1.9°C 32.5°F0.3°C 89% 10.0 mph S16.1 kmh S -- 29.87 in1011.5 mb 0.00 in0.0 mm 0.00 in0.0 mm 0.00 in0.0 mm
10:45 AM 35.4°F1.9°C 32.5°F0.3°C 89% 5.0 mph SSW8.0 kmh SSW -- 29.88 in1011.9 mb 0.00 in0.0 mm 0.00 in0.0 mm 0.00 in0.0 mm
10:50 AM 35.5°F1.9°C 32.6°F0.3°C 89% 5.0 mph SW8.0 kmh SW -- 29.88 in1011.9 mb 0.00 in0.0 mm 0.00 in0.0 mm 0.00 in0.0 mm
10:55 AM 35.5°F1.9°C 32.6°F0.3°C 89% 7.0 mph SSW11.3 kmh SSW -- 29.88 in1011.9 mb 0.00 in0.0 mm 0.00 in0.0 mm 0.00 in0.0 mm
11:00 AM 35.5°F1.9°C 32.6°F0.3°C 89% 5.0 mph SSW8.0 kmh SSW -- 29.88 in1011.9 mb 0.00 in0.0 mm 0.00 in0.0 mm 0.00 in0.0 mm
11:05 AM 35.4°F1.9°C 32.5°F0.3°C 89% 5.0 mph SW8.0 kmh SW -- 29.88 in1011.9 mb 0.00 in0.0 mm 0.00 in0.0 mm 0.00 in0.0 mm
11:10 AM 35.5°F1.9°C 32.6°F0.3°C 89% 4.0 mph SW6.4 kmh SW 12.0 mph19.3 kmh 29.88 in1011.9 mb 0.00 in0.0 mm 0.00 in0.0 mm 0.00 in0.0 mm
11:15 AM 35.5°F1.9°C 32.6°F0.3°C 89% 5.0 mph SSW8.0 kmh SSW 12.0 mph19.3 kmh 29.88 in1011.9 mb 0.00 in0.0 mm 0.00 in0.0 mm 0.00 in0.0 mm
11:20 AM 35.5°F1.9°C 32.6°F0.3°C 89% 4.0 mph SSW6.4 kmh SSW -- 29.88 in1011.9 mb 0.00 in0.0 mm 0.00 in0.0 mm 0.00 in0.0 mm
11:25 AM 35.5°F1.9°C 32.3°F0.2°C 88% 6.0 mph SW9.7 kmh SW -- 29.87 in1011.5 mb 0.00 in0.0 mm 0.00 in0.0 mm 0.00 in0.0 mm
11:30 AM 35.6°F2.0°C 32.4°F0.2°C 88% 5.0 mph S8.0 kmh S -- 29.87 in1011.5 mb 0.00 in0.0 mm 0.00 in0.0 mm 0.00 in0.0 mm
11:35 AM 35.6°F2.0°C 32.4°F0.2°C 88% 2.0 mph SSW3.2 kmh SSW -- 29.87 in1011.5 mb 0.00 in0.0 mm 0.00 in0.0 mm 0.00 in0.0 mm
11:40 AM 35.6°F2.0°C 32.4°F0.2°C 88% 3.0 mph S4.8 kmh S -- 29.87 in1011.5 mb 0.00 in0.0 mm 0.00 in0.0 mm 0.00 in0.0 mm
11:45 AM 35.6°F2.0°C 32.4°F0.2°C 88% 7.0 mph S11.3 kmh S -- 29.86 in1011.2 mb 0.00 in0.0 mm 0.00 in0.0 mm 0.00 in0.0 mm
11:50 AM 35.7°F2.1°C 32.8°F0.4°C 89% 6.0 mph S9.7 kmh S -- 29.86 in1011.2 mb 0.00 in0.0 mm 0.00 in0.0 mm 0.00 in0.0 mm
11:55 AM 35.7°F2.1°C 32.8°F0.4°C 89% 4.0 mph S6.4 kmh S -- 29.85 in1010.8 mb 0.00 in0.0 mm 0.00 in0.0 mm 0.00 in0.0 mm
12:00 PM 35.8°F2.1°C 32.6°F0.3°C 88% 4.0 mph S6.4 kmh S 10.0 mph16.1 kmh 29.85 in1010.8 mb 0.00 in0.0 mm 0.00 in0.0 mm 0.00 in0.0 mm
12:05 PM 35.9°F2.2°C 32.7°F0.4°C 88% 7.0 mph SSW11.3 kmh SSW 10.0 mph16.1 kmh 29.85 in1010.8 mb 0.00 in0.0 mm 0.00 in0.0 mm 0.00 in0.0 mm
12:10 PM 36.0°F2.2°C 32.8°F0.4°C 88% 8.0 mph S12.9 kmh S -- 29.84 in1010.5 mb 0.00 in0.0 mm 0.00 in0.0 mm 0.00 in0.0 mm
12:15 PM 36.0°F2.2°C 32.8°F0.4°C 88% 9.0 mph SSW14.5 kmh SSW -- 29.84 in1010.5 mb 0.00 in0.0 mm 0.00 in0.0 mm 0.00 in0.0 mm
12:20 PM 36.1°F2.3°C 32.9°F0.5°C 88% 5.0 mph S8.0 kmh S -- 29.83 in1010.2 mb 0.00 in0.0 mm 0.00 in0.0 mm 0.00 in0.0 mm
12:25 PM 36.1°F2.3°C 32.9°F0.5°C 88% 5.0 mph S8.0 kmh S -- 29.83 in1010.2 mb 0.00 in0.0 mm 0.00 in0.0 mm 0.00 in0.0 mm
12:30 PM 36.2°F2.3°C 33.0°F0.6°C 88% 6.0 mph S9.7 kmh S -- 29.83 in1010.2 mb 0.00 in0.0 mm 0.00 in0.0 mm 0.00 in0.0 mm
12:35 PM 36.3°F2.4°C 33.1°F0.6°C 88% 7.0 mph S11.3 kmh S -- 29.83 in1010.2 mb 0.00 in0.0 mm 0.00 in0.0 mm 0.00 in0.0 mm
12:40 PM 36.4°F2.4°C 33.2°F0.7°C 88% 7.0 mph SSW11.3 kmh SSW -- 29.82 in1009.8 mb 0.00 in0.0 mm 0.00 in0.0 mm 0.00 in0.0 mm
12:45 PM 36.4°F2.4°C 33.2°F0.7°C 88% 7.0 mph S11.3 kmh S -- 29.82 in1009.8 mb 0.00 in0.0 mm 0.00 in0.0 mm 0.00 in0.0 mm
12:50 PM 36.5°F2.5°C 33.3°F0.7°C 88% 3.0 mph S4.8 kmh S 13.0 mph20.9 kmh 29.82 in1009.8 mb 0.00 in0.0 mm 0.00 in0.0 mm 0.00 in0.0 mm
12:55 PM 36.6°F2.6°C 33.4°F0.8°C 88% 3.0 mph SSW4.8 kmh SSW 13.0 mph20.9 kmh 29.82 in1009.8 mb 0.00 in0.0 mm 0.00 in0.0 mm 0.00 in0.0 mm
01:00 PM 36.7°F2.6°C 33.5°F0.8°C 88% 6.0 mph S9.7 kmh S -- 29.82 in1009.8 mb 0.00 in0.0 mm 0.00 in0.0 mm 0.00 in0.0 mm
01:05 PM 36.8°F2.7°C 33.6°F0.9°C 88% 5.0 mph SSW8.0 kmh SSW -- 29.81 in1009.5 mb 0.00 in0.0 mm 0.00 in0.0 mm 0.00 in0.0 mm
01:10 PM 36.9°F2.7°C 33.7°F0.9°C 88% 4.0 mph SSW6.4 kmh SSW -- 29.80 in1009.1 mb 0.00 in0.0 mm 0.00 in0.0 mm 0.00 in0.0 mm
01:15 PM 37.0°F2.8°C 33.8°F1.0°C 88% 7.0 mph SSW11.3 kmh SSW -- 29.80 in1009.1 mb 0.00 in0.0 mm 0.00 in0.0 mm 0.00 in0.0 mm
01:20 PM 37.0°F2.8°C 33.8°F1.0°C 88% 8.0 mph SW12.9 kmh SW -- 29.80 in1009.1 mb 0.00 in0.0 mm 0.00 in0.0 mm 0.00 in0.0 mm
01:25 PM 37.1°F2.8°C 33.9°F1.1°C 88% 8.0 mph SSW12.9 kmh SSW -- 29.80 in1009.1 mb 0.00 in0.0 mm 0.00 in0.0 mm 0.00 in0.0 mm
01:30 PM 37.2°F2.9°C 34.0°F1.1°C 88% 9.0 mph S14.5 kmh S -- 29.80 in1009.1 mb 0.00 in0.0 mm 0.00 in0.0 mm 0.00 in0.0 mm
01:35 PM 37.3°F2.9°C 34.1°F1.2°C 88% 6.0 mph SSW9.7 kmh SSW -- 29.80 in1009.1 mb 0.00 in0.0 mm 0.00 in0.0 mm 0.00 in0.0 mm
01:40 PM 37.3°F2.9°C 34.1°F1.2°C 88% 5.0 mph SW8.0 kmh SW 12.0 mph19.3 kmh 29.79 in1008.8 mb 0.00 in0.0 mm 0.00 in0.0 mm 0.00 in0.0 mm
01:45 PM 37.4°F3.0°C 34.2°F1.2°C 88% 7.0 mph SSW11.3 kmh SSW 12.0 mph19.3 kmh 29.79 in1008.8 mb 0.00 in0.0 mm 0.00 in0.0 mm 0.00 in0.0 mm
01:50 PM 37.4°F3.0°C 34.2°F1.2°C 88% 7.0 mph SSW11.3 kmh SSW -- 29.79 in1008.8 mb 0.00 in0.0 mm 0.00 in0.0 mm 0.00 in0.0 mm
01:55 PM 37.5°F3.1°C 34.3°F1.3°C 88% 3.0 mph SSW4.8 kmh SSW -- 29.79 in1008.8 mb 0.00 in0.0 mm 0.00 in0.0 mm 0.00 in0.0 mm
02:00 PM 37.5°F3.1°C 34.3°F1.3°C 88% 6.0 mph SW9.7 kmh SW -- 29.78 in1008.5 mb 0.00 in0.0 mm 0.00 in0.0 mm 0.00 in0.0 mm
02:05 PM 37.6°F3.1°C 34.4°F1.3°C 88% 6.0 mph SSW9.7 kmh SSW -- 29.78 in1008.5 mb 0.00 in0.0 mm 0.00 in0.0 mm 0.00 in0.0 mm
02:10 PM 37.6°F3.1°C 34.4°F1.3°C 88% 11.0 mph SSW17.7 kmh SSW -- 29.78 in1008.5 mb 0.00 in0.0 mm 0.00 in0.0 mm 0.00 in0.0 mm
02:15 PM 37.7°F3.2°C 34.5°F1.4°C 88% 7.0 mph S11.3 kmh S -- 29.77 in1008.1 mb 0.00 in0.0 mm 0.00 in0.0 mm 0.00 in0.0 mm
02:20 PM 37.7°F3.2°C 34.5°F1.4°C 88% 3.0 mph SSW4.8 kmh SSW -- 29.77 in1008.1 mb 0.00 in0.0 mm 0.00 in0.0 mm 0.00 in0.0 mm
02:25 PM 37.7°F3.2°C 34.5°F1.4°C 88% 4.0 mph SSW6.4 kmh SSW -- 29.77 in1008.1 mb 0.00 in0.0 mm 0.00 in0.0 mm 0.00 in0.0 mm
02:30 PM 37.7°F3.2°C 34.5°F1.4°C 88% 6.0 mph SSW9.7 kmh SSW 8.0 mph12.9 kmh 29.76 in1007.8 mb 0.00 in0.0 mm 0.00 in0.0 mm 0.00 in0.0 mm
02:35 PM 37.8°F3.2°C 34.6°F1.4°C 88% 6.0 mph SSW9.7 kmh SSW 8.0 mph12.9 kmh 29.76 in1007.8 mb 0.00 in0.0 mm 0.00 in0.0 mm 0.00 in0.0 mm
02:40 PM 37.8°F3.2°C 34.6°F1.4°C 88% 7.0 mph S11.3 kmh S -- 29.76 in1007.8 mb 0.00 in0.0 mm 0.00 in0.0 mm 0.00 in0.0 mm
02:45 PM 37.8°F3.2°C 34.6°F1.4°C 88% 4.0 mph SSW6.4 kmh SSW -- 29.76 in1007.8 mb 0.00 in0.0 mm 0.00 in0.0 mm 0.00 in0.0 mm
02:50 PM 37.8°F3.2°C 34.6°F1.4°C 88% 5.0 mph S8.0 kmh S -- 29.76 in1007.8 mb 0.00 in0.0 mm 0.00 in0.0 mm 0.00 in0.0 mm
02:55 PM 37.8°F3.2°C 34.6°F1.4°C 88% 6.0 mph S9.7 kmh S -- 29.76 in1007.8 mb 0.00 in0.0 mm 0.00 in0.0 mm 0.00 in0.0 mm
03:00 PM 37.9°F3.3°C 34.7°F1.5°C 88% 5.0 mph SSW8.0 kmh SSW -- 29.75 in1007.5 mb 0.00 in0.0 mm 0.00 in0.0 mm 0.00 in0.0 mm
03:05 PM 37.9°F3.3°C 34.7°F1.5°C 88% 2.0 mph S3.2 kmh S -- 29.75 in1007.5 mb 0.00 in0.0 mm 0.00 in0.0 mm 0.00 in0.0 mm
03:10 PM 38.0°F3.3°C 34.8°F1.6°C 88% 4.0 mph S6.4 kmh S -- 29.75 in1007.5 mb 0.00 in0.0 mm 0.00 in0.0 mm 0.00 in0.0 mm
03:15 PM 38.1°F3.4°C 34.9°F1.6°C 88% 6.0 mph SSW9.7 kmh SSW -- 29.75 in1007.5 mb 0.00 in0.0 mm 0.00 in0.0 mm 0.00 in0.0 mm
03:20 PM 38.1°F3.4°C 34.9°F1.6°C 88% 4.0 mph S6.4 kmh S 10.0 mph16.1 kmh 29.75 in1007.5 mb 0.00 in0.0 mm 0.00 in0.0 mm 0.00 in0.0 mm
03:25 PM 38.2°F3.4°C 35.0°F1.7°C 88% 5.0 mph S8.0 kmh S 10.0 mph16.1 kmh 29.74 in1007.1 mb 0.00 in0.0 mm 0.00 in0.0 mm 0.00 in0.0 mm
03:30 PM 38.2°F3.4°C 35.0°F1.7°C 88% 5.0 mph S8.0 kmh S -- 29.74 in1007.1 mb 0.00 in0.0 mm 0.00 in0.0 mm 0.00 in0.0 mm
03:35 PM 38.3°F3.5°C 35.1°F1.7°C 88% 7.0 mph SSW11.3 kmh SSW -- 29.74 in1007.1 mb 0.00 in0.0 mm 0.00 in0.0 mm 0.00 in0.0 mm
03:40 PM 38.3°F3.5°C 35.1°F1.7°C 88% 6.0 mph SSW9.7 kmh SSW -- 29.74 in1007.1 mb 0.00 in0.0 mm 0.00 in0.0 mm 0.00 in0.0 mm
03:45 PM 38.3°F3.5°C 35.1°F1.7°C 88% 8.0 mph S12.9 kmh S -- 29.74 in1007.1 mb 0.00 in0.0 mm 0.00 in0.0 mm 0.00 in0.0 mm
03:50 PM 38.3°F3.5°C 35.1°F1.7°C 88% 6.0 mph SSW9.7 kmh SSW -- 29.74 in1007.1 mb 0.00 in0.0 mm 0.00 in0.0 mm 0.00 in0.0 mm
03:55 PM 38.4°F3.6°C 35.2°F1.8°C 88% 5.0 mph SSW8.0 kmh SSW -- 29.74 in1007.1 mb 0.00 in0.0 mm 0.00 in0.0 mm 0.00 in0.0 mm
04:00 PM 38.4°F3.6°C 35.2°F1.8°C 88% 2.0 mph S3.2 kmh S -- 29.74 in1007.1 mb 0.00 in0.0 mm 0.00 in0.0 mm 0.00 in0.0 mm
04:05 PM 38.4°F3.6°C 35.2°F1.8°C 88% 3.0 mph S4.8 kmh S -- 29.75 in1007.5 mb 0.00 in0.0 mm 0.00 in0.0 mm 0.00 in0.0 mm
04:10 PM 38.5°F3.6°C 35.3°F1.8°C 88% 4.0 mph S6.4 kmh S 9.0 mph14.5 kmh 29.74 in1007.1 mb 0.00 in0.0 mm 0.00 in0.0 mm 0.00 in0.0 mm
04:15 PM 38.6°F3.7°C 35.4°F1.9°C 88% 2.0 mph S3.2 kmh S 9.0 mph14.5 kmh 29.74 in1007.1 mb 0.00 in0.0 mm 0.00 in0.0 mm 0.00 in0.0 mm
04:20 PM 38.6°F3.7°C 35.4°F1.9°C 88% 3.0 mph S4.8 kmh S -- 29.74 in1007.1 mb 0.00 in0.0 mm 0.00 in0.0 mm 0.00 in0.0 mm
04:25 PM 38.7°F3.7°C 35.5°F1.9°C 88% 2.0 mph S3.2 kmh S -- 29.73 in1006.8 mb 0.00 in0.0 mm 0.00 in0.0 mm 0.00 in0.0 mm
04:30 PM 38.7°F3.7°C 35.5°F1.9°C 88% 4.0 mph S6.4 kmh S -- 29.73 in1006.8 mb 0.00 in0.0 mm 0.00 in0.0 mm 0.00 in0.0 mm
04:35 PM 38.7°F3.7°C 35.5°F1.9°C 88% 3.0 mph S4.8 kmh S -- 29.73 in1006.8 mb 0.00 in0.0 mm 0.00 in0.0 mm 0.00 in0.0 mm
04:40 PM 38.8°F3.8°C 35.6°F2.0°C 88% 2.0 mph SSE3.2 kmh SSE -- 29.73 in1006.8 mb 0.00 in0.0 mm 0.00 in0.0 mm 0.00 in0.0 mm
04:45 PM 38.9°F3.8°C 35.7°F2.1°C 88% 4.0 mph S6.4 kmh S -- 29.74 in1007.1 mb 0.00 in0.0 mm 0.00 in0.0 mm 0.00 in0.0 mm
04:50 PM 38.9°F3.8°C 35.7°F2.1°C 88% 2.0 mph S3.2 kmh S -- 29.74 in1007.1 mb 0.00 in0.0 mm 0.00 in0.0 mm 0.00 in0.0 mm
04:55 PM 38.9°F3.8°C 35.7°F2.1°C 88% 4.0 mph S6.4 kmh S -- 29.74 in1007.1 mb 0.00 in0.0 mm 0.00 in0.0 mm 0.00 in0.0 mm
05:00 PM 38.9°F3.8°C 35.7°F2.1°C 88% 6.0 mph SSE9.7 kmh SSE 7.0 mph11.3 kmh 29.73 in1006.8 mb 0.00 in0.0 mm 0.00 in0.0 mm 0.00 in0.0 mm
05:05 PM 38.9°F3.8°C 35.7°F2.1°C 88% 3.0 mph S4.8 kmh S 7.0 mph11.3 kmh 29.73 in1006.8 mb 0.00 in0.0 mm 0.00 in0.0 mm 0.00 in0.0 mm
05:10 PM 38.9°F3.8°C 35.7°F2.1°C 88% Calm Calm -- 29.74 in1007.1 mb 0.00 in0.0 mm 0.00 in0.0 mm 0.00 in0.0 mm
05:15 PM 38.9°F3.8°C 35.7°F2.1°C 88% 5.0 mph SSW8.0 kmh SSW -- 29.74 in1007.1 mb 0.00 in0.0 mm 0.00 in0.0 mm 0.00 in0.0 mm
05:20 PM 38.9°F3.8°C 35.7°F2.1°C 88% 3.0 mph S4.8 kmh S -- 29.74 in1007.1 mb 0.00 in0.0 mm 0.00 in0.0 mm 0.00 in0.0 mm
05:25 PM 38.9°F3.8°C 35.7°F2.1°C 88% 2.0 mph S3.2 kmh S -- 29.73 in1006.8 mb 0.00 in0.0 mm 0.00 in0.0 mm 0.00 in0.0 mm
05:30 PM 38.9°F3.8°C 35.7°F2.1°C 88% 5.0 mph S8.0 kmh S -- 29.73 in1006.8 mb 0.00 in0.0 mm 0.00 in0.0 mm 0.00 in0.0 mm
05:35 PM 38.9°F3.8°C 35.7°F2.1°C 88% 3.0 mph SW4.8 kmh SW -- 29.73 in1006.8 mb 0.00 in0.0 mm 0.00 in0.0 mm 0.00 in0.0 mm
05:40 PM 38.9°F3.8°C 35.7°F2.1°C 88% 2.0 mph S3.2 kmh S -- 29.73 in1006.8 mb 0.00 in0.0 mm 0.00 in0.0 mm 0.00 in0.0 mm
05:45 PM 39.0°F3.9°C 35.8°F2.1°C 88% 5.0 mph S8.0 kmh S -- 29.73 in1006.8 mb 0.00 in0.0 mm 0.00 in0.0 mm 0.00 in0.0 mm
05:50 PM 39.1°F3.9°C 35.9°F2.2°C 88% 3.0 mph S4.8 kmh S 8.0 mph12.9 kmh 29.73 in1006.8 mb 0.00 in0.0 mm 0.00 in0.0 mm 0.00 in0.0 mm
05:55 PM 39.2°F4.0°C 35.9°F2.2°C 88% 3.0 mph S4.8 kmh S 8.0 mph12.9 kmh 29.73 in1006.8 mb 0.00 in0.0 mm 0.00 in0.0 mm 0.00 in0.0 mm
06:00 PM 39.3°F4.1°C 36.0°F2.2°C 88% 6.0 mph SSE9.7 kmh SSE -- 29.73 in1006.8 mb 0.00 in0.0 mm 0.00 in0.0 mm 0.00 in0.0 mm
06:05 PM 39.4°F4.1°C 36.1°F2.3°C 88% 6.0 mph S9.7 kmh S -- 29.73 in1006.8 mb 0.00 in0.0 mm 0.00 in0.0 mm 0.00 in0.0 mm
06:10 PM 39.5°F4.2°C 36.2°F2.3°C 88% 4.0 mph S6.4 kmh S -- 29.72 in1006.4 mb 0.00 in0.0 mm 0.00 in0.0 mm 0.00 in0.0 mm
06:15 PM 39.5°F4.2°C 36.2°F2.3°C 88% 6.0 mph SSE9.7 kmh SSE -- 29.72 in1006.4 mb 0.00 in0.0 mm 0.00 in0.0 mm 0.00 in0.0 mm
06:20 PM 39.7°F4.3°C 36.4°F2.4°C 88% 5.0 mph S8.0 kmh S -- 29.73 in1006.8 mb 0.00 in0.0 mm 0.00 in0.0 mm 0.00 in0.0 mm
06:25 PM 39.7°F4.3°C 36.4°F2.4°C 88% 4.0 mph S6.4 kmh S -- 29.73 in1006.8 mb 0.00 in0.0 mm 0.00 in0.0 mm 0.00 in0.0 mm
06:30 PM 39.7°F4.3°C 36.4°F2.4°C 88% 4.0 mph S6.4 kmh S -- 29.73 in1006.8 mb 0.00 in0.0 mm 0.00 in0.0 mm 0.00 in0.0 mm
06:35 PM 39.8°F4.3°C 36.5°F2.5°C 88% 3.0 mph S4.8 kmh S -- 29.74 in1007.1 mb 0.00 in0.0 mm 0.00 in0.0 mm 0.00 in0.0 mm
06:40 PM 39.8°F4.3°C 36.5°F2.5°C 88% 2.0 mph S3.2 kmh S 8.0 mph12.9 kmh 29.74 in1007.1 mb 0.00 in0.0 mm 0.00 in0.0 mm 0.00 in0.0 mm
06:45 PM 39.8°F4.3°C 36.5°F2.5°C 88% Calm Calm 8.0 mph12.9 kmh 29.74 in1007.1 mb 0.00 in0.0 mm 0.00 in0.0 mm 0.00 in0.0 mm
06:50 PM 39.8°F4.3°C 36.5°F2.5°C 88% 4.0 mph S6.4 kmh S -- 29.73 in1006.8 mb 0.00 in0.0 mm 0.00 in0.0 mm 0.00 in0.0 mm
06:55 PM 39.9°F4.4°C 36.6°F2.6°C 88% 3.0 mph S4.8 kmh S -- 29.72 in1006.4 mb 0.00 in0.0 mm 0.00 in0.0 mm 0.00 in0.0 mm
07:00 PM 40.0°F4.4°C 36.7°F2.6°C 88% Calm Calm -- 29.72 in1006.4 mb 0.00 in0.0 mm 0.00 in0.0 mm 0.00 in0.0 mm
07:05 PM 40.0°F4.4°C 36.7°F2.6°C 88% 1.0 mph S1.6 kmh S -- 29.73 in1006.8 mb 0.00 in0.0 mm 0.00 in0.0 mm 0.00 in0.0 mm
07:10 PM 40.1°F4.5°C 36.8°F2.7°C 88% 3.0 mph S4.8 kmh S -- 29.73 in1006.8 mb 0.00 in0.0 mm 0.00 in0.0 mm 0.00 in0.0 mm
07:15 PM 40.1°F4.5°C 36.8°F2.7°C 88% Calm Calm -- 29.73 in1006.8 mb 0.00 in0.0 mm 0.00 in0.0 mm 0.00 in0.0 mm
07:20 PM 40.1°F4.5°C 36.8°F2.7°C 88% 1.0 mph S1.6 kmh S -- 29.73 in1006.8 mb 0.00 in0.0 mm 0.00 in0.0 mm 0.00 in0.0 mm
07:25 PM 40.2°F4.6°C 36.9°F2.7°C 88% Calm Calm -- 29.72 in1006.4 mb 0.00 in0.0 mm 0.00 in0.0 mm 0.00 in0.0 mm
07:30 PM 40.1°F4.5°C 36.8°F2.7°C 88% Calm Calm 2.0 mph3.2 kmh 29.73 in1006.8 mb 0.00 in0.0 mm 0.00 in0.0 mm 0.00 in0.0 mm
07:35 PM 40.1°F4.5°C 36.8°F2.7°C 88% Calm Calm 2.0 mph3.2 kmh 29.73 in1006.8 mb 0.01 in0.3 mm 0.12 in3.0 mm 0.01 in0.3 mm
07:40 PM 40.1°F4.5°C 36.8°F2.7°C 88% Calm Calm -- 29.73 in1006.8 mb 0.01 in0.3 mm 0.00 in0.0 mm 0.01 in0.3 mm
07:45 PM 40.1°F4.5°C 36.8°F2.7°C 88% Calm Calm -- 29.72 in1006.4 mb 0.01 in0.3 mm 0.00 in0.0 mm 0.01 in0.3 mm
07:50 PM 40.1°F4.5°C 36.8°F2.7°C 88% 5.0 mph S8.0 kmh S -- 29.72 in1006.4 mb 0.01 in0.3 mm 0.00 in0.0 mm 0.01 in0.3 mm
07:55 PM 40.1°F4.5°C 36.8°F2.7°C 88% 2.0 mph S3.2 kmh S -- 29.72 in1006.4 mb 0.01 in0.3 mm 0.00 in0.0 mm 0.01 in0.3 mm
08:00 PM 40.2°F4.6°C 36.9°F2.7°C 88% 3.0 mph S4.8 kmh S -- 29.72 in1006.4 mb 0.01 in0.3 mm 0.00 in0.0 mm 0.01 in0.3 mm
08:05 PM 40.2°F4.6°C 36.9°F2.7°C 88% Calm Calm -- 29.71 in1006.1 mb 0.01 in0.3 mm 0.00 in0.0 mm 0.01 in0.3 mm
08:10 PM 40.3°F4.6°C 37.0°F2.8°C 88% Calm Calm -- 29.71 in1006.1 mb 0.01 in0.3 mm 0.00 in0.0 mm 0.01 in0.3 mm
08:15 PM 40.3°F4.6°C 37.0°F2.8°C 88% Calm Calm -- 29.71 in1006.1 mb 0.01 in0.3 mm 0.00 in0.0 mm 0.01 in0.3 mm
08:20 PM 40.4°F4.7°C 37.4°F3.0°C 89% Calm Calm 5.0 mph8.0 kmh 29.71 in1006.1 mb 0.01 in0.3 mm 0.00 in0.0 mm 0.01 in0.3 mm
08:25 PM 40.4°F4.7°C 37.4°F3.0°C 89% 3.0 mph S4.8 kmh S 5.0 mph8.0 kmh 29.72 in1006.4 mb 0.01 in0.3 mm 0.00 in0.0 mm 0.01 in0.3 mm
08:30 PM 40.4°F4.7°C 37.4°F3.0°C 89% 2.0 mph S3.2 kmh S -- 29.72 in1006.4 mb 0.01 in0.3 mm 0.00 in0.0 mm 0.01 in0.3 mm
08:35 PM 40.4°F4.7°C 37.4°F3.0°C 89% 4.0 mph S6.4 kmh S -- 29.72 in1006.4 mb 0.00 in0.0 mm 0.00 in0.0 mm 0.01 in0.3 mm
08:40 PM 40.4°F4.7°C 37.4°F3.0°C 89% 1.0 mph S1.6 kmh S -- 29.72 in1006.4 mb 0.00 in0.0 mm 0.00 in0.0 mm 0.01 in0.3 mm
08:45 PM 40.4°F4.7°C 37.4°F3.0°C 89% 3.0 mph S4.8 kmh S -- 29.72 in1006.4 mb 0.00 in0.0 mm 0.00 in0.0 mm 0.01 in0.3 mm
08:50 PM 40.6°F4.8°C 37.6°F3.1°C 89% 2.0 mph S3.2 kmh S -- 29.71 in1006.1 mb 0.00 in0.0 mm 0.00 in0.0 mm 0.01 in0.3 mm
08:55 PM 40.6°F4.8°C 37.6°F3.1°C 89% 2.0 mph S3.2 kmh S -- 29.71 in1006.1 mb 0.00 in0.0 mm 0.00 in0.0 mm 0.01 in0.3 mm
09:00 PM 40.8°F4.9°C 37.8°F3.2°C 89% 3.0 mph SSE4.8 kmh SSE -- 29.71 in1006.1 mb 0.00 in0.0 mm 0.00 in0.0 mm 0.01 in0.3 mm
09:05 PM 41.1°F5.1°C 38.1°F3.4°C 89% 6.0 mph S9.7 kmh S -- 29.71 in1006.1 mb 0.00 in0.0 mm 0.00 in0.0 mm 0.01 in0.3 mm
09:10 PM 41.5°F5.3°C 38.5°F3.6°C 89% 1.0 mph SSE1.6 kmh SSE 9.0 mph14.5 kmh 29.71 in1006.1 mb 0.00 in0.0 mm 0.00 in0.0 mm 0.01 in0.3 mm
09:15 PM 41.7°F5.4°C 38.7°F3.7°C 89% 5.0 mph S8.0 kmh S 9.0 mph14.5 kmh 29.72 in1006.4 mb 0.00 in0.0 mm 0.00 in0.0 mm 0.01 in0.3 mm
09:20 PM 42.0°F5.6°C 39.0°F3.9°C 89% 5.0 mph S8.0 kmh S -- 29.71 in1006.1 mb 0.00 in0.0 mm 0.00 in0.0 mm 0.01 in0.3 mm
09:25 PM 42.2°F5.7°C 39.2°F4.0°C 89% 6.0 mph SSE9.7 kmh SSE -- 29.71 in1006.1 mb 0.00 in0.0 mm 0.00 in0.0 mm 0.01 in0.3 mm
09:30 PM 42.3°F5.7°C 39.3°F4.1°C 89% 5.0 mph S8.0 kmh S -- 29.70 in1005.8 mb 0.00 in0.0 mm 0.00 in0.0 mm 0.01 in0.3 mm
09:35 PM 42.5°F5.8°C 39.5°F4.2°C 89% 2.0 mph S3.2 kmh S -- 29.70 in1005.8 mb 0.00 in0.0 mm 0.00 in0.0 mm 0.01 in0.3 mm
09:40 PM 42.8°F6.0°C 39.8°F4.3°C 89% 3.0 mph SSE4.8 kmh SSE -- 29.71 in1006.1 mb 0.00 in0.0 mm 0.00 in0.0 mm 0.01 in0.3 mm
09:45 PM 43.0°F6.1°C 40.0°F4.4°C 89% 2.0 mph S3.2 kmh S -- 29.71 in1006.1 mb 0.00 in0.0 mm 0.00 in0.0 mm 0.01 in0.3 mm
09:50 PM 43.3°F6.3°C 40.3°F4.6°C 89% 2.0 mph S3.2 kmh S -- 29.71 in1006.1 mb 0.01 in0.3 mm 0.12 in3.0 mm 0.02 in0.5 mm
09:55 PM 43.7°F6.5°C 40.7°F4.8°C 89% 2.0 mph S3.2 kmh S -- 29.71 in1006.1 mb 0.01 in0.3 mm 0.00 in0.0 mm 0.02 in0.5 mm
10:00 PM 44.0°F6.7°C 41.0°F5.0°C 89% 4.0 mph SSE6.4 kmh SSE 9.0 mph14.5 kmh 29.71 in1006.1 mb 0.01 in0.3 mm 0.00 in0.0 mm 0.02 in0.5 mm
10:05 PM 44.4°F6.9°C 41.4°F5.2°C 89% 7.0 mph S11.3 kmh S 9.0 mph14.5 kmh 29.71 in1006.1 mb 0.01 in0.3 mm 0.00 in0.0 mm 0.02 in0.5 mm
10:10 PM 44.7°F7.1°C 41.7°F5.4°C 89% 1.0 mph S1.6 kmh S -- 29.71 in1006.1 mb 0.01 in0.3 mm 0.00 in0.0 mm 0.02 in0.5 mm
10:15 PM 45.1°F7.3°C 42.1°F5.6°C 89% 4.0 mph S6.4 kmh S -- 29.71 in1006.1 mb 0.01 in0.3 mm 0.00 in0.0 mm 0.02 in0.5 mm
10:20 PM 45.3°F7.4°C 42.3°F5.7°C 89% 2.0 mph S3.2 kmh S -- 29.71 in1006.1 mb 0.01 in0.3 mm 0.00 in0.0 mm 0.02 in0.5 mm
10:25 PM 45.6°F7.6°C 42.5°F5.8°C 89% 5.0 mph SSW8.0 kmh SSW -- 29.71 in1006.1 mb 0.01 in0.3 mm 0.00 in0.0 mm 0.02 in0.5 mm
10:30 PM 45.8°F7.7°C 42.7°F5.9°C 89% 4.0 mph S6.4 kmh S -- 29.71 in1006.1 mb 0.01 in0.3 mm 0.00 in0.0 mm 0.02 in0.5 mm
10:35 PM 45.9°F7.7°C 42.8°F6.0°C 89% 5.0 mph S8.0 kmh S -- 29.71 in1006.1 mb 0.01 in0.3 mm 0.00 in0.0 mm 0.02 in0.5 mm
10:40 PM 46.1°F7.8°C 43.0°F6.1°C 89% 5.0 mph S8.0 kmh S -- 29.71 in1006.1 mb 0.01 in0.3 mm 0.00 in0.0 mm 0.02 in0.5 mm
10:45 PM 46.3°F7.9°C 43.2°F6.2°C 89% 4.0 mph S6.4 kmh S -- 29.71 in1006.1 mb 0.01 in0.3 mm 0.00 in0.0 mm 0.02 in0.5 mm
10:50 PM 46.5°F8.1°C 43.4°F6.3°C 89% 4.0 mph S6.4 kmh S 11.0 mph17.7 kmh 29.71 in1006.1 mb 0.00 in0.0 mm 0.00 in0.0 mm 0.02 in0.5 mm
10:55 PM 46.6°F8.1°C 43.5°F6.4°C 89% 3.0 mph SSW4.8 kmh SSW 11.0 mph17.7 kmh 29.71 in1006.1 mb 0.00 in0.0 mm 0.00 in0.0 mm 0.02 in0.5 mm
11:00 PM 46.6°F8.1°C 43.5°F6.4°C 89% 8.0 mph S12.9 kmh S -- 29.71 in1006.1 mb 0.00 in0.0 mm 0.00 in0.0 mm 0.02 in0.5 mm
11:05 PM 46.9°F8.3°C 43.8°F6.6°C 89% 5.0 mph S8.0 kmh S -- 29.71 in1006.1 mb 0.00 in0.0 mm 0.00 in0.0 mm 0.02 in0.5 mm
11:10 PM 47.0°F8.3°C 43.9°F6.6°C 89% 6.0 mph S9.7 kmh S -- 29.71 in1006.1 mb 0.00 in0.0 mm 0.00 in0.0 mm 0.02 in0.5 mm
11:15 PM 47.2°F8.4°C 44.1°F6.7°C 89% 8.0 mph SSW12.9 kmh SSW -- 29.71 in1006.1 mb 0.00 in0.0 mm 0.00 in0.0 mm 0.02 in0.5 mm
11:20 PM 47.5°F8.6°C 44.4°F6.9°C 89% 7.0 mph SSW11.3 kmh SSW -- 29.71 in1006.1 mb 0.00 in0.0 mm 0.00 in0.0 mm 0.02 in0.5 mm
11:25 PM 47.6°F8.7°C 44.5°F6.9°C 89% 6.0 mph S9.7 kmh S -- 29.71 in1006.1 mb 0.00 in0.0 mm 0.00 in0.0 mm 0.02 in0.5 mm
11:30 PM 47.7°F8.7°C 44.6°F7.0°C 89% 5.0 mph SSW8.0 kmh SSW -- 29.71 in1006.1 mb 0.00 in0.0 mm 0.00 in0.0 mm 0.02 in0.5 mm
11:35 PM 48.0°F8.9°C 44.9°F7.2°C 89% 6.0 mph S9.7 kmh S -- 29.71 in1006.1 mb 0.00 in0.0 mm 0.00 in0.0 mm 0.02 in0.5 mm
11:40 PM 48.0°F8.9°C 44.6°F7.0°C 88% 7.0 mph S11.3 kmh S 10.0 mph16.1 kmh 29.72 in1006.4 mb 0.00 in0.0 mm 0.00 in0.0 mm 0.02 in0.5 mm
11:45 PM 48.2°F9.0°C 44.8°F7.1°C 88% 7.0 mph SSW11.3 kmh SSW 10.0 mph16.1 kmh 29.72 in1006.4 mb 0.00 in0.0 mm 0.00 in0.0 mm 0.02 in0.5 mm
11:50 PM 48.3°F9.1°C 44.9°F7.2°C 88% 4.0 mph SSW6.4 kmh SSW -- 29.72 in1006.4 mb 0.00 in0.0 mm 0.00 in0.0 mm 0.02 in0.5 mm
11:55 PM 48.3°F9.1°C 44.9°F7.2°C 88% 9.0 mph SSE14.5 kmh SSE -- 29.71 in1006.1 mb 0.00 in0.0 mm 0.00 in0.0 mm 0.02 in0.5 mm